sensor_id;sensor_type;location;lat;lon;timestamp;P1;durP1;ratioP1;P2;durP2;ratioP2
21270;SDS011;10795;50.796;3.860;2023-02-28T00:01:30;8.32;;;5.40;;
21270;SDS011;10795;50.796;3.860;2023-02-28T00:03:58;7.88;;;5.90;;
21270;SDS011;10795;50.796;3.860;2023-02-28T00:06:27;9.68;;;5.75;;
21270;SDS011;10795;50.796;3.860;2023-02-28T00:08:53;7.40;;;4.97;;
21270;SDS011;10795;50.796;3.860;2023-02-28T00:11:24;8.40;;;5.20;;
21270;SDS011;10795;50.796;3.860;2023-02-28T00:13:52;6.80;;;4.38;;
21270;SDS011;10795;50.796;3.860;2023-02-28T00:16:22;9.10;;;5.90;;
21270;SDS011;10795;50.796;3.860;2023-02-28T00:18:48;9.85;;;5.40;;
21270;SDS011;10795;50.796;3.860;2023-02-28T00:21:18;9.90;;;5.03;;
21270;SDS011;10795;50.796;3.860;2023-02-28T00:24:02;11.05;;;5.93;;
21270;SDS011;10795;50.796;3.860;2023-02-28T00:26:39;7.90;;;5.75;;
21270;SDS011;10795;50.796;3.860;2023-02-28T00:29:07;8.65;;;4.97;;
21270;SDS011;10795;50.796;3.860;2023-02-28T00:31:36;6.82;;;4.35;;
21270;SDS011;10795;50.796;3.860;2023-02-28T00:34:10;7.85;;;5.60;;
21270;SDS011;10795;50.796;3.860;2023-02-28T00:36:38;5.78;;;4.97;;
21270;SDS011;10795;50.796;3.860;2023-02-28T00:39:13;6.93;;;5.15;;
21270;SDS011;10795;50.796;3.860;2023-02-28T00:41:44;7.43;;;5.07;;
21270;SDS011;10795;50.796;3.860;2023-02-28T00:44:12;11.02;;;5.82;;
21270;SDS011;10795;50.796;3.860;2023-02-28T00:46:45;10.43;;;4.68;;
21270;SDS011;10795;50.796;3.860;2023-02-28T00:49:26;7.38;;;4.70;;
21270;SDS011;10795;50.796;3.860;2023-02-28T00:51:53;6.22;;;4.85;;
21270;SDS011;10795;50.796;3.860;2023-02-28T00:54:20;6.97;;;5.47;;
21270;SDS011;10795;50.796;3.860;2023-02-28T00:56:50;7.65;;;5.10;;
21270;SDS011;10795;50.796;3.860;2023-02-28T00:59:16;9.82;;;5.68;;
21270;SDS011;10795;50.796;3.860;2023-02-28T01:01:45;9.10;;;5.55;;
21270;SDS011;10795;50.796;3.860;2023-02-28T01:04:16;8.10;;;5.63;;
21270;SDS011;10795;50.796;3.860;2023-02-28T01:06:50;9.32;;;4.65;;
21270;SDS011;10795;50.796;3.860;2023-02-28T01:09:32;9.32;;;5.03;;
21270;SDS011;10795;50.796;3.860;2023-02-28T01:11:58;9.48;;;5.43;;
21270;SDS011;10795;50.796;3.860;2023-02-28T01:14:33;10.40;;;5.60;;
21270;SDS011;10795;50.796;3.860;2023-02-28T01:17:02;11.32;;;6.20;;
21270;SDS011;10795;50.796;3.860;2023-02-28T01:19:41;6.40;;;4.90;;
21270;SDS011;10795;50.796;3.860;2023-02-28T01:22:12;8.70;;;4.30;;
21270;SDS011;10795;50.796;3.860;2023-02-28T01:24:58;8.02;;;5.55;;
21270;SDS011;10795;50.796;3.860;2023-02-28T01:27:24;7.78;;;5.95;;
21270;SDS011;10795;50.796;3.860;2023-02-28T01:29:59;8.50;;;5.63;;
21270;SDS011;10795;50.796;3.860;2023-02-28T01:32:25;7.43;;;4.65;;
21270;SDS011;10795;50.796;3.860;2023-02-28T01:35:02;6.57;;;3.90;;
21270;SDS011;10795;50.796;3.860;2023-02-28T01:37:30;8.38;;;5.00;;
21270;SDS011;10795;50.796;3.860;2023-02-28T01:39:59;10.27;;;4.38;;
21270;SDS011;10795;50.796;3.860;2023-02-28T01:42:32;6.20;;;5.13;;
21270;SDS011;10795;50.796;3.860;2023-02-28T01:48:04;7.53;;;4.43;;
21270;SDS011;10795;50.796;3.860;2023-02-28T01:50:39;8.15;;;5.38;;
21270;SDS011;10795;50.796;3.860;2023-02-28T01:53:12;9.02;;;5.85;;
21270;SDS011;10795;50.796;3.860;2023-02-28T01:55:42;8.00;;;5.72;;
21270;SDS011;10795;50.796;3.860;2023-02-28T01:58:12;8.25;;;5.25;;
21270;SDS011;10795;50.796;3.860;2023-02-28T02:00:40;6.63;;;4.63;;
21270;SDS011;10795;50.796;3.860;2023-02-28T02:03:10;6.75;;;4.80;;
21270;SDS011;10795;50.796;3.860;2023-02-28T02:05:41;5.90;;;4.60;;
21270;SDS011;10795;50.796;3.860;2023-02-28T02:08:11;8.18;;;5.00;;
21270;SDS011;10795;50.796;3.860;2023-02-28T02:10:40;7.53;;;4.43;;
21270;SDS011;10795;50.796;3.860;2023-02-28T02:16:41;5.57;;;4.38;;
21270;SDS011;10795;50.796;3.860;2023-02-28T02:40:00;7.05;;;5.43;;
21270;SDS011;10795;50.796;3.860;2023-02-28T02:42:40;9.85;;;5.30;;
21270;SDS011;10795;50.796;3.860;2023-02-28T02:45:11;5.97;;;4.85;;
21270;SDS011;10795;50.796;3.860;2023-02-28T02:47:42;7.22;;;5.70;;
21270;SDS011;10795;50.796;3.860;2023-02-28T02:53:00;8.70;;;5.65;;
21270;SDS011;10795;50.796;3.860;2023-02-28T02:55:34;8.27;;;5.53;;
21270;SDS011;10795;50.796;3.860;2023-02-28T02:58:15;7.97;;;6.00;;
21270;SDS011;10795;50.796;3.860;2023-02-28T03:00:50;9.40;;;6.10;;
21270;SDS011;10795;50.796;3.860;2023-02-28T03:03:26;7.30;;;5.15;;
21270;SDS011;10795;50.796;3.860;2023-02-28T03:06:09;9.45;;;6.22;;
21270;SDS011;10795;50.796;3.860;2023-02-28T03:08:39;5.18;;;4.25;;
21270;SDS011;10795;50.796;3.860;2023-02-28T03:11:16;7.60;;;5.93;;
21270;SDS011;10795;50.796;3.860;2023-02-28T03:16:59;7.38;;;4.78;;
21270;SDS011;10795;50.796;3.860;2023-02-28T03:25:18;9.43;;;6.38;;
21270;SDS011;10795;50.796;3.860;2023-02-28T03:31:26;9.93;;;6.53;;
21270;SDS011;10795;50.796;3.860;2023-02-28T03:34:08;9.57;;;6.43;;
21270;SDS011;10795;50.796;3.860;2023-02-28T03:36:38;8.98;;;6.00;;
21270;SDS011;10795;50.796;3.860;2023-02-28T03:39:15;6.10;;;5.00;;
21270;SDS011;10795;50.796;3.860;2023-02-28T03:42:00;8.35;;;5.50;;
21270;SDS011;10795;50.796;3.860;2023-02-28T03:44:40;13.35;;;6.55;;
21270;SDS011;10795;50.796;3.860;2023-02-28T03:50:01;9.30;;;6.28;;
21270;SDS011;10795;50.796;3.860;2023-02-28T03:53:00;8.40;;;5.85;;
21270;SDS011;10795;50.796;3.860;2023-02-28T03:55:48;8.82;;;6.50;;
21270;SDS011;10795;50.796;3.860;2023-02-28T03:58:24;8.95;;;6.07;;
21270;SDS011;10795;50.796;3.860;2023-02-28T04:01:16;10.10;;;5.97;;
21270;SDS011;10795;50.796;3.860;2023-02-28T04:04:06;9.15;;;6.25;;
21270;SDS011;10795;50.796;3.860;2023-02-28T04:06:37;9.40;;;6.15;;
21270;SDS011;10795;50.796;3.860;2023-02-28T04:09:13;10.10;;;6.88;;
21270;SDS011;10795;50.796;3.860;2023-02-28T04:11:54;8.15;;;6.30;;
21270;SDS011;10795;50.796;3.860;2023-02-28T04:14:40;9.73;;;6.22;;
21270;SDS011;10795;50.796;3.860;2023-02-28T04:17:16;8.25;;;6.22;;
21270;SDS011;10795;50.796;3.860;2023-02-28T04:19:55;8.50;;;6.30;;
21270;SDS011;10795;50.796;3.860;2023-02-28T04:22:23;10.45;;;6.22;;
21270;SDS011;10795;50.796;3.860;2023-02-28T04:25:01;10.13;;;6.28;;
21270;SDS011;10795;50.796;3.860;2023-02-28T04:27:36;8.60;;;6.50;;
21270;SDS011;10795;50.796;3.860;2023-02-28T04:30:43;9.32;;;6.55;;
21270;SDS011;10795;50.796;3.860;2023-02-28T04:33:21;8.05;;;5.95;;
21270;SDS011;10795;50.796;3.860;2023-02-28T04:36:03;9.80;;;6.32;;
21270;SDS011;10795;50.796;3.860;2023-02-28T04:38:49;10.40;;;6.57;;
21270;SDS011;10795;50.796;3.860;2023-02-28T04:41:23;9.00;;;5.82;;
21270;SDS011;10795;50.796;3.860;2023-02-28T04:44:14;10.48;;;5.93;;
21270;SDS011;10795;50.796;3.860;2023-02-28T04:46:56;9.70;;;7.32;;
21270;SDS011;10795;50.796;3.860;2023-02-28T04:49:34;10.05;;;7.20;;
21270;SDS011;10795;50.796;3.860;2023-02-28T04:52:04;14.95;;;7.75;;
21270;SDS011;10795;50.796;3.860;2023-02-28T04:54:34;13.52;;;8.25;;
21270;SDS011;10795;50.796;3.860;2023-02-28T04:57:13;12.68;;;8.35;;
21270;SDS011;10795;50.796;3.860;2023-02-28T04:59:44;11.98;;;8.23;;
21270;SDS011;10795;50.796;3.860;2023-02-28T05:02:17;16.73;;;8.02;;
21270;SDS011;10795;50.796;3.860;2023-02-28T05:04:53;12.40;;;8.15;;
21270;SDS011;10795;50.796;3.860;2023-02-28T05:07:27;11.68;;;7.80;;
21270;SDS011;10795;50.796;3.860;2023-02-28T05:10:16;12.18;;;7.63;;
21270;SDS011;10795;50.796;3.860;2023-02-28T05:12:44;11.85;;;7.97;;
21270;SDS011;10795;50.796;3.860;2023-02-28T05:15:31;15.57;;;8.82;;
21270;SDS011;10795;50.796;3.860;2023-02-28T05:18:17;15.50;;;8.63;;
21270;SDS011;10795;50.796;3.860;2023-02-28T05:20:56;16.80;;;8.15;;
21270;SDS011;10795;50.796;3.860;2023-02-28T05:23:52;9.50;;;6.03;;
21270;SDS011;10795;50.796;3.860;2023-02-28T05:26:57;11.23;;;7.45;;
21270;SDS011;10795;50.796;3.860;2023-02-28T05:29:43;11.35;;;7.05;;
21270;SDS011;10795;50.796;3.860;2023-02-28T05:32:31;12.77;;;7.65;;
21270;SDS011;10795;50.796;3.860;2023-02-28T05:35:39;10.48;;;6.85;;
21270;SDS011;10795;50.796;3.860;2023-02-28T05:38:37;8.93;;;6.82;;
21270;SDS011;10795;50.796;3.860;2023-02-28T05:44:35;11.85;;;7.78;;
21270;SDS011;10795;50.796;3.860;2023-02-28T05:47:30;12.13;;;7.38;;
21270;SDS011;10795;50.796;3.860;2023-02-28T05:50:34;9.57;;;6.15;;
21270;SDS011;10795;50.796;3.860;2023-02-28T05:53:43;9.40;;;6.15;;
21270;SDS011;10795;50.796;3.860;2023-02-28T05:56:36;9.02;;;6.90;;
21270;SDS011;10795;50.796;3.860;2023-02-28T05:59:29;10.05;;;6.80;;
21270;SDS011;10795;50.796;3.860;2023-02-28T06:02:36;10.95;;;6.60;;
21270;SDS011;10795;50.796;3.860;2023-02-28T06:05:39;10.38;;;7.15;;
21270;SDS011;10795;50.796;3.860;2023-02-28T06:09:06;9.63;;;6.90;;
21270;SDS011;10795;50.796;3.860;2023-02-28T06:12:09;9.30;;;6.80;;
21270;SDS011;10795;50.796;3.860;2023-02-28T06:15:00;10.95;;;7.38;;
21270;SDS011;10795;50.796;3.860;2023-02-28T06:17:59;12.10;;;7.28;;
21270;SDS011;10795;50.796;3.860;2023-02-28T06:21:03;15.27;;;6.78;;
21270;SDS011;10795;50.796;3.860;2023-02-28T06:24:13;10.63;;;7.82;;
21270;SDS011;10795;50.796;3.860;2023-02-28T06:27:15;12.48;;;7.93;;
21270;SDS011;10795;50.796;3.860;2023-02-28T06:32:55;10.98;;;7.57;;
21270;SDS011;10795;50.796;3.860;2023-02-28T06:35:45;11.88;;;7.03;;
21270;SDS011;10795;50.796;3.860;2023-02-28T06:39:05;10.20;;;7.20;;
21270;SDS011;10795;50.796;3.860;2023-02-28T07:04:53;11.88;;;7.45;;
21270;SDS011;10795;50.796;3.860;2023-02-28T07:51:23;10.52;;;6.75;;
21270;SDS011;10795;50.796;3.860;2023-02-28T07:53:48;8.73;;;6.38;;
21270;SDS011;10795;50.796;3.860;2023-02-28T07:56:14;10.48;;;6.80;;
21270;SDS011;10795;50.796;3.860;2023-02-28T07:58:40;10.63;;;6.90;;
21270;SDS011;10795;50.796;3.860;2023-02-28T08:01:06;10.52;;;6.82;;
21270;SDS011;10795;50.796;3.860;2023-02-28T08:03:33;13.00;;;8.18;;
21270;SDS011;10795;50.796;3.860;2023-02-28T08:06:00;12.73;;;7.85;;
21270;SDS011;10795;50.796;3.860;2023-02-28T08:08:29;12.05;;;7.15;;
21270;SDS011;10795;50.796;3.860;2023-02-28T08:11:00;11.75;;;7.82;;
21270;SDS011;10795;50.796;3.860;2023-02-28T08:13:27;9.77;;;7.53;;
21270;SDS011;10795;50.796;3.860;2023-02-28T08:15:54;12.10;;;7.55;;
21270;SDS011;10795;50.796;3.860;2023-02-28T08:18:23;13.00;;;7.20;;
21270;SDS011;10795;50.796;3.860;2023-02-28T08:20:49;11.95;;;8.02;;
21270;SDS011;10795;50.796;3.860;2023-02-28T08:23:15;11.27;;;7.13;;
21270;SDS011;10795;50.796;3.860;2023-02-28T08:25:41;10.32;;;7.22;;
21270;SDS011;10795;50.796;3.860;2023-02-28T08:28:06;9.98;;;7.10;;
21270;SDS011;10795;50.796;3.860;2023-02-28T08:30:32;11.65;;;6.72;;
21270;SDS011;10795;50.796;3.860;2023-02-28T08:32:58;12.82;;;7.15;;
21270;SDS011;10795;50.796;3.860;2023-02-28T08:35:24;10.60;;;7.03;;
21270;SDS011;10795;50.796;3.860;2023-02-28T08:37:50;13.02;;;7.55;;
21270;SDS011;10795;50.796;3.860;2023-02-28T08:40:18;10.48;;;7.03;;
21270;SDS011;10795;50.796;3.860;2023-02-28T08:42:44;10.57;;;6.93;;
21270;SDS011;10795;50.796;3.860;2023-02-28T08:45:11;11.65;;;7.05;;
21270;SDS011;10795;50.796;3.860;2023-02-28T08:47:38;9.85;;;7.22;;
21270;SDS011;10795;50.796;3.860;2023-02-28T08:50:05;9.35;;;7.20;;
21270;SDS011;10795;50.796;3.860;2023-02-28T08:52:32;10.60;;;6.97;;
21270;SDS011;10795;50.796;3.860;2023-02-28T08:55:01;11.75;;;7.07;;
21270;SDS011;10795;50.796;3.860;2023-02-28T08:57:26;11.18;;;7.30;;
21270;SDS011;10795;50.796;3.860;2023-02-28T08:59:52;11.93;;;6.15;;
21270;SDS011;10795;50.796;3.860;2023-02-28T09:02:18;10.00;;;6.55;;
21270;SDS011;10795;50.796;3.860;2023-02-28T09:04:44;10.43;;;6.40;;
21270;SDS011;10795;50.796;3.860;2023-02-28T09:07:11;11.95;;;7.07;;
21270;SDS011;10795;50.796;3.860;2023-02-28T09:09:37;9.73;;;6.20;;
21270;SDS011;10795;50.796;3.860;2023-02-28T09:12:10;9.40;;;6.10;;
21270;SDS011;10795;50.796;3.860;2023-02-28T09:14:35;8.02;;;5.65;;
21270;SDS011;10795;50.796;3.860;2023-02-28T09:17:02;6.65;;;5.38;;
21270;SDS011;10795;50.796;3.860;2023-02-28T09:19:30;8.20;;;5.25;;
21270;SDS011;10795;50.796;3.860;2023-02-28T09:21:56;7.18;;;4.97;;
21270;SDS011;10795;50.796;3.860;2023-02-28T09:24:22;8.63;;;4.97;;
21270;SDS011;10795;50.796;3.860;2023-02-28T09:26:51;6.28;;;4.68;;
21270;SDS011;10795;50.796;3.860;2023-02-28T09:29:17;5.18;;;3.17;;
21270;SDS011;10795;50.796;3.860;2023-02-28T09:31:43;6.55;;;4.45;;
21270;SDS011;10795;50.796;3.860;2023-02-28T09:34:08;7.82;;;5.05;;
21270;SDS011;10795;50.796;3.860;2023-02-28T09:36:34;4.72;;;4.00;;
21270;SDS011;10795;50.796;3.860;2023-02-28T09:39:02;6.85;;;4.32;;
21270;SDS011;10795;50.796;3.860;2023-02-28T09:41:29;6.30;;;4.53;;
21270;SDS011;10795;50.796;3.860;2023-02-28T09:44:05;4.38;;;2.95;;
21270;SDS011;10795;50.796;3.860;2023-02-28T09:46:42;4.50;;;2.83;;
21270;SDS011;10795;50.796;3.860;2023-02-28T09:49:22;5.88;;;4.22;;
21270;SDS011;10795;50.796;3.860;2023-02-28T09:54:35;4.70;;;3.72;;
21270;SDS011;10795;50.796;3.860;2023-02-28T10:02:13;5.63;;;3.38;;
21270;SDS011;10795;50.796;3.860;2023-02-28T10:04:53;4.82;;;3.53;;
21270;SDS011;10795;50.796;3.860;2023-02-28T10:10:27;4.57;;;3.00;;
21270;SDS011;10795;50.796;3.860;2023-02-28T10:13:04;4.93;;;3.45;;
21270;SDS011;10795;50.796;3.860;2023-02-28T10:15:40;2.47;;;2.28;;
21270;SDS011;10795;50.796;3.860;2023-02-28T10:18:10;4.10;;;2.90;;
21270;SDS011;10795;50.796;3.860;2023-02-28T10:20:42;3.45;;;2.42;;
21270;SDS011;10795;50.796;3.860;2023-02-28T10:23:14;5.00;;;2.30;;
21270;SDS011;10795;50.796;3.860;2023-02-28T10:26:09;3.63;;;2.27;;
21270;SDS011;10795;50.796;3.860;2023-02-28T10:28:36;2.75;;;2.50;;
21270;SDS011;10795;50.796;3.860;2023-02-28T10:31:02;2.30;;;2.10;;
21270;SDS011;10795;50.796;3.860;2023-02-28T10:33:30;4.88;;;2.38;;
21270;SDS011;10795;50.796;3.860;2023-02-28T10:36:00;3.20;;;1.90;;
21270;SDS011;10795;50.796;3.860;2023-02-28T10:38:31;4.35;;;2.95;;
21270;SDS011;10795;50.796;3.860;2023-02-28T10:41:05;3.90;;;2.60;;
21270;SDS011;10795;50.796;3.860;2023-02-28T10:43:34;3.50;;;2.45;;
21270;SDS011;10795;50.796;3.860;2023-02-28T10:46:01;3.50;;;2.80;;
21270;SDS011;10795;50.796;3.860;2023-02-28T10:48:44;4.88;;;2.17;;
21270;SDS011;10795;50.796;3.860;2023-02-28T10:51:16;4.10;;;2.55;;
21270;SDS011;10795;50.796;3.860;2023-02-28T10:53:51;5.07;;;2.00;;
21270;SDS011;10795;50.796;3.860;2023-02-28T10:56:20;3.55;;;2.40;;
21270;SDS011;10795;50.796;3.860;2023-02-28T10:58:58;1.55;;;1.45;;
21270;SDS011;10795;50.796;3.860;2023-02-28T11:01:48;2.50;;;1.70;;
21270;SDS011;10795;50.796;3.860;2023-02-28T11:09:44;4.30;;;2.00;;
21270;SDS011;10795;50.796;3.860;2023-02-28T11:14:58;2.28;;;1.67;;
21270;SDS011;10795;50.796;3.860;2023-02-28T11:17:29;2.60;;;1.52;;
21270;SDS011;10795;50.796;3.860;2023-02-28T11:19:57;2.05;;;1.63;;
21270;SDS011;10795;50.796;3.860;2023-02-28T11:22:29;2.67;;;1.45;;
21270;SDS011;10795;50.796;3.860;2023-02-28T11:24:59;1.92;;;1.77;;
21270;SDS011;10795;50.796;3.860;2023-02-28T11:29:56;2.05;;;1.80;;
21270;SDS011;10795;50.796;3.860;2023-02-28T11:32:24;3.85;;;1.80;;
21270;SDS011;10795;50.796;3.860;2023-02-28T11:37:55;3.65;;;1.67;;
21270;SDS011;10795;50.796;3.860;2023-02-28T11:40:29;3.08;;;2.30;;
21270;SDS011;10795;50.796;3.860;2023-02-28T11:46:57;2.60;;;2.28;;
21270;SDS011;10795;50.796;3.860;2023-02-28T11:49:06;2.30;;;1.83;;
21270;SDS011;10795;50.796;3.860;2023-02-28T11:55:01;4.18;;;3.00;;
21270;SDS011;10795;50.796;3.860;2023-02-28T12:03:26;5.78;;;4.05;;
21270;SDS011;10795;50.796;3.860;2023-02-28T12:06:12;6.32;;;2.67;;
21270;SDS011;10795;50.796;3.860;2023-02-28T12:11:43;3.78;;;2.58;;
21270;SDS011;10795;50.796;3.860;2023-02-28T12:22:49;2.05;;;1.60;;
21270;SDS011;10795;50.796;3.860;2023-02-28T12:28:24;2.40;;;2.20;;
21270;SDS011;10795;50.796;3.860;2023-02-28T12:30:55;1.92;;;1.80;;
21270;SDS011;10795;50.796;3.860;2023-02-28T12:33:27;1.38;;;1.13;;
21270;SDS011;10795;50.796;3.860;2023-02-28T12:35:59;3.30;;;2.28;;
21270;SDS011;10795;50.796;3.860;2023-02-28T12:38:41;3.50;;;2.50;;
21270;SDS011;10795;50.796;3.860;2023-02-28T12:41:12;3.15;;;2.58;;
21270;SDS011;10795;50.796;3.860;2023-02-28T12:43:45;3.08;;;2.53;;
21270;SDS011;10795;50.796;3.860;2023-02-28T12:46:24;1.87;;;1.73;;
21270;SDS011;10795;50.796;3.860;2023-02-28T12:48:58;4.40;;;2.92;;
21270;SDS011;10795;50.796;3.860;2023-02-28T12:51:29;3.55;;;2.70;;
21270;SDS011;10795;50.796;3.860;2023-02-28T13:01:55;3.00;;;2.45;;
21270;SDS011;10795;50.796;3.860;2023-02-28T13:04:47;2.05;;;1.85;;
21270;SDS011;10795;50.796;3.860;2023-02-28T13:10:21;3.20;;;2.53;;
21270;SDS011;10795;50.796;3.860;2023-02-28T13:12:51;3.72;;;2.63;;
21270;SDS011;10795;50.796;3.860;2023-02-28T13:15:25;8.32;;;4.07;;
21270;SDS011;10795;50.796;3.860;2023-02-28T13:17:58;5.20;;;3.00;;
21270;SDS011;10795;50.796;3.860;2023-02-28T13:20:34;3.05;;;2.78;;
21270;SDS011;10795;50.796;3.860;2023-02-28T13:23:02;2.88;;;2.60;;
21270;SDS011;10795;50.796;3.860;2023-02-28T13:27:59;4.30;;;3.25;;
21270;SDS011;10795;50.796;3.860;2023-02-28T13:46:27;3.13;;;2.60;;
21270;SDS011;10795;50.796;3.860;2023-02-28T13:48:53;4.15;;;2.60;;
21270;SDS011;10795;50.796;3.860;2023-02-28T13:51:28;4.97;;;2.17;;
21270;SDS011;10795;50.796;3.860;2023-02-28T13:57:09;3.47;;;2.55;;
21270;SDS011;10795;50.796;3.860;2023-02-28T14:02:49;3.83;;;3.00;;
21270;SDS011;10795;50.796;3.860;2023-02-28T14:05:28;3.53;;;2.70;;
21270;SDS011;10795;50.796;3.860;2023-02-28T14:07:56;3.45;;;2.63;;
21270;SDS011;10795;50.796;3.860;2023-02-28T14:10:28;2.85;;;2.30;;
21270;SDS011;10795;50.796;3.860;2023-02-28T14:12:59;3.30;;;2.38;;
21270;SDS011;10795;50.796;3.860;2023-02-28T14:15:34;2.53;;;2.30;;
21270;SDS011;10795;50.796;3.860;2023-02-28T14:18:21;2.97;;;2.78;;
21270;SDS011;10795;50.796;3.860;2023-02-28T14:21:02;3.53;;;2.50;;
21270;SDS011;10795;50.796;3.860;2023-02-28T14:23:50;6.72;;;2.63;;
21270;SDS011;10795;50.796;3.860;2023-02-28T14:29:18;4.78;;;2.80;;
21270;SDS011;10795;50.796;3.860;2023-02-28T14:35:17;3.25;;;2.90;;
21270;SDS011;10795;50.796;3.860;2023-02-28T14:37:51;3.85;;;3.40;;
21270;SDS011;10795;50.796;3.860;2023-02-28T14:42:59;2.10;;;1.90;;
21270;SDS011;10795;50.796;3.860;2023-02-28T14:45:30;3.88;;;2.92;;
21270;SDS011;10795;50.796;3.860;2023-02-28T14:48:00;4.57;;;3.75;;
21270;SDS011;10795;50.796;3.860;2023-02-28T14:50:32;3.78;;;2.65;;
21270;SDS011;10795;50.796;3.860;2023-02-28T14:53:00;3.80;;;3.17;;
21270;SDS011;10795;50.796;3.860;2023-02-28T14:55:28;3.00;;;2.55;;
21270;SDS011;10795;50.796;3.860;2023-02-28T14:58:19;2.88;;;2.40;;
21270;SDS011;10795;50.796;3.860;2023-02-28T15:00:57;3.47;;;2.75;;
21270;SDS011;10795;50.796;3.860;2023-02-28T15:05:59;2.63;;;2.20;;
21270;SDS011;10795;50.796;3.860;2023-02-28T15:08:27;3.05;;;2.35;;
21270;SDS011;10795;50.796;3.860;2023-02-28T15:11:00;2.47;;;2.27;;
21270;SDS011;10795;50.796;3.860;2023-02-28T15:13:29;2.72;;;1.83;;
21270;SDS011;10795;50.796;3.860;2023-02-28T15:16:08;3.45;;;2.67;;
21270;SDS011;10795;50.796;3.860;2023-02-28T15:18:50;3.80;;;2.83;;
21270;SDS011;10795;50.796;3.860;2023-02-28T15:21:26;3.78;;;3.33;;
21270;SDS011;10795;50.796;3.860;2023-02-28T15:30:00;3.25;;;2.95;;
21270;SDS011;10795;50.796;3.860;2023-02-28T15:32:32;4.82;;;2.92;;
21270;SDS011;10795;50.796;3.860;2023-02-28T15:35:17;3.65;;;1.88;;
21270;SDS011;10795;50.796;3.860;2023-02-28T15:37:52;3.05;;;2.58;;
21270;SDS011;10795;50.796;3.860;2023-02-28T15:40:28;4.78;;;2.72;;
21270;SDS011;10795;50.796;3.860;2023-02-28T15:48:32;5.05;;;3.00;;
21270;SDS011;10795;50.796;3.860;2023-02-28T15:51:20;3.47;;;2.78;;
21270;SDS011;10795;50.796;3.860;2023-02-28T15:53:52;4.03;;;3.00;;
21270;SDS011;10795;50.796;3.860;2023-02-28T15:56:24;3.30;;;3.00;;
21270;SDS011;10795;50.796;3.860;2023-02-28T15:58:59;3.00;;;2.72;;
21270;SDS011;10795;50.796;3.860;2023-02-28T16:01:34;4.63;;;2.95;;
21270;SDS011;10795;50.796;3.860;2023-02-28T16:04:19;6.18;;;4.10;;
21270;SDS011;10795;50.796;3.860;2023-02-28T16:06:46;5.15;;;3.42;;
21270;SDS011;10795;50.796;3.860;2023-02-28T16:11:53;5.13;;;3.30;;
21270;SDS011;10795;50.796;3.860;2023-02-28T16:14:24;5.10;;;4.03;;
21270;SDS011;10795;50.796;3.860;2023-02-28T16:17:07;6.43;;;3.42;;
21270;SDS011;10795;50.796;3.860;2023-02-28T16:19:44;3.95;;;3.28;;
21270;SDS011;10795;50.796;3.860;2023-02-28T16:22:10;5.95;;;3.60;;
21270;SDS011;10795;50.796;3.860;2023-02-28T16:24:36;8.35;;;5.47;;
21270;SDS011;10795;50.796;3.860;2023-02-28T16:27:03;7.88;;;3.90;;
21270;SDS011;10795;50.796;3.860;2023-02-28T16:29:31;8.80;;;4.95;;
21270;SDS011;10795;50.796;3.860;2023-02-28T16:32:00;11.27;;;6.45;;
21270;SDS011;10795;50.796;3.860;2023-02-28T16:34:29;6.70;;;4.70;;
21270;SDS011;10795;50.796;3.860;2023-02-28T16:36:54;5.80;;;4.10;;
21270;SDS011;10795;50.796;3.860;2023-02-28T16:39:20;4.53;;;3.42;;
21270;SDS011;10795;50.796;3.860;2023-02-28T16:41:46;5.57;;;3.78;;
21270;SDS011;10795;50.796;3.860;2023-02-28T16:44:26;4.10;;;2.97;;
21270;SDS011;10795;50.796;3.860;2023-02-28T16:46:54;4.25;;;3.42;;
21270;SDS011;10795;50.796;3.860;2023-02-28T16:49:20;4.70;;;3.83;;
21270;SDS011;10795;50.796;3.860;2023-02-28T16:51:46;4.93;;;3.70;;
21270;SDS011;10795;50.796;3.860;2023-02-28T16:54:15;4.82;;;3.40;;
21270;SDS011;10795;50.796;3.860;2023-02-28T16:56:42;4.82;;;3.58;;
21270;SDS011;10795;50.796;3.860;2023-02-28T16:59:12;4.70;;;3.60;;
21270;SDS011;10795;50.796;3.860;2023-02-28T17:01:38;4.68;;;3.78;;
21270;SDS011;10795;50.796;3.860;2023-02-28T17:04:04;4.38;;;3.42;;
21270;SDS011;10795;50.796;3.860;2023-02-28T17:06:30;4.75;;;3.20;;
21270;SDS011;10795;50.796;3.860;2023-02-28T17:08:59;5.55;;;3.67;;
21270;SDS011;10795;50.796;3.860;2023-02-28T17:11:25;8.23;;;5.30;;
21270;SDS011;10795;50.796;3.860;2023-02-28T17:13:51;8.50;;;6.18;;
21270;SDS011;10795;50.796;3.860;2023-02-28T17:16:26;6.43;;;5.00;;
21270;SDS011;10795;50.796;3.860;2023-02-28T17:19:01;4.72;;;3.40;;
21270;SDS011;10795;50.796;3.860;2023-02-28T17:21:29;5.47;;;3.70;;
21270;SDS011;10795;50.796;3.860;2023-02-28T17:23:56;4.07;;;3.40;;
21270;SDS011;10795;50.796;3.860;2023-02-28T17:26:22;4.22;;;3.63;;
21270;SDS011;10795;50.796;3.860;2023-02-28T17:28:53;5.43;;;3.50;;
21270;SDS011;10795;50.796;3.860;2023-02-28T17:31:21;4.65;;;3.97;;
21270;SDS011;10795;50.796;3.860;2023-02-28T17:33:47;5.28;;;3.65;;
21270;SDS011;10795;50.796;3.860;2023-02-28T17:36:17;4.15;;;3.70;;
21270;SDS011;10795;50.796;3.860;2023-02-28T17:38:47;5.90;;;3.90;;
21270;SDS011;10795;50.796;3.860;2023-02-28T17:41:13;5.68;;;4.15;;
21270;SDS011;10795;50.796;3.860;2023-02-28T17:43:39;3.90;;;3.50;;
21270;SDS011;10795;50.796;3.860;2023-02-28T17:46:06;4.57;;;3.75;;
21270;SDS011;10795;50.796;3.860;2023-02-28T17:48:46;4.40;;;3.70;;
21270;SDS011;10795;50.796;3.860;2023-02-28T17:51:15;4.55;;;3.92;;
21270;SDS011;10795;50.796;3.860;2023-02-28T17:53:42;3.97;;;3.45;;
21270;SDS011;10795;50.796;3.860;2023-02-28T17:56:12;5.32;;;3.80;;
21270;SDS011;10795;50.796;3.860;2023-02-28T17:58:45;4.28;;;3.70;;
21270;SDS011;10795;50.796;3.860;2023-02-28T18:01:11;4.82;;;3.92;;
21270;SDS011;10795;50.796;3.860;2023-02-28T18:03:37;3.55;;;3.20;;
21270;SDS011;10795;50.796;3.860;2023-02-28T18:06:03;4.30;;;3.75;;
21270;SDS011;10795;50.796;3.860;2023-02-28T18:08:29;5.45;;;4.40;;
21270;SDS011;10795;50.796;3.860;2023-02-28T18:10:58;5.55;;;4.30;;
21270;SDS011;10795;50.796;3.860;2023-02-28T18:13:24;4.95;;;4.47;;
21270;SDS011;10795;50.796;3.860;2023-02-28T18:15:53;5.90;;;4.60;;
21270;SDS011;10795;50.796;3.860;2023-02-28T18:18:19;5.75;;;4.40;;
21270;SDS011;10795;50.796;3.860;2023-02-28T18:20:45;5.00;;;4.22;;
21270;SDS011;10795;50.796;3.860;2023-02-28T18:23:13;6.63;;;4.57;;
21270;SDS011;10795;50.796;3.860;2023-02-28T18:25:39;6.20;;;4.55;;
21270;SDS011;10795;50.796;3.860;2023-02-28T18:28:51;7.07;;;4.60;;
21270;SDS011;10795;50.796;3.860;2023-02-28T18:31:18;5.68;;;4.43;;
21270;SDS011;10795;50.796;3.860;2023-02-28T18:33:48;5.85;;;4.57;;
21270;SDS011;10795;50.796;3.860;2023-02-28T18:36:15;4.78;;;4.15;;
21270;SDS011;10795;50.796;3.860;2023-02-28T18:38:42;8.85;;;4.45;;
21270;SDS011;10795;50.796;3.860;2023-02-28T18:41:18;7.18;;;4.78;;
21270;SDS011;10795;50.796;3.860;2023-02-28T18:43:47;6.35;;;5.22;;
21270;SDS011;10795;50.796;3.860;2023-02-28T18:46:15;9.18;;;5.80;;
21270;SDS011;10795;50.796;3.860;2023-02-28T18:48:42;7.13;;;5.75;;
21270;SDS011;10795;50.796;3.860;2023-02-28T18:51:12;6.15;;;4.95;;
21270;SDS011;10795;50.796;3.860;2023-02-28T18:53:45;8.68;;;5.68;;
21270;SDS011;10795;50.796;3.860;2023-02-28T18:56:12;15.10;;;8.70;;
21270;SDS011;10795;50.796;3.860;2023-02-28T18:58:39;8.02;;;6.22;;
21270;SDS011;10795;50.796;3.860;2023-02-28T19:01:15;21.70;;;12.98;;
21270;SDS011;10795;50.796;3.860;2023-02-28T19:03:43;21.30;;;12.98;;
21270;SDS011;10795;50.796;3.860;2023-02-28T19:06:12;17.70;;;11.85;;
21270;SDS011;10795;50.796;3.860;2023-02-28T19:08:41;14.60;;;9.88;;
21270;SDS011;10795;50.796;3.860;2023-02-28T19:11:14;17.88;;;9.45;;
21270;SDS011;10795;50.796;3.860;2023-02-28T19:13:42;11.48;;;7.95;;
21270;SDS011;10795;50.796;3.860;2023-02-28T19:16:09;9.95;;;7.55;;
21270;SDS011;10795;50.796;3.860;2023-02-28T19:18:36;10.30;;;5.85;;